Time;durP1;ratioP1;P1;durP2;ratioP2;P2;SDS_P1;SDS_P2;PMS_P1;PMS_P2;Temp;Humidity;BMP_temperature;BMP_pressure;BME280_temperature;BME280_humidity;BME280_pressure;Samples;Min_cycle;Max_cycle;Signal;HPM_P1;HPM_P2
2022/04/03 00:02:07;;;;;;;7.03;4.00;;;;;;;-0.08;62.92;102318.31;5018698;28;20076;-57
2022/04/03 00:04:32;;;;;;;5.83;3.93;;;;;;;-0.13;63.15;102317.66;5023709;28;20108;-57
2022/04/03 00:06:59;;;;;;;7.40;4.30;;;;;;;-0.17;63.30;102317.88;5019111;28;20092;-57
2022/04/03 00:09:25;;;;;;;8.50;4.47;;;;;;;-0.25;63.53;102318.22;5020589;28;20551;-56
2022/04/03 00:11:50;;;;;;;7.07;3.90;;;;;;;-0.31;63.87;102315.81;5024781;28;20057;-57
2022/04/03 00:14:16;;;;;;;6.80;4.17;;;;;;;-0.36;63.91;102316.03;5019682;28;20034;-56
2022/04/03 00:16:41;;;;;;;5.67;3.90;;;;;;;-0.41;64.12;102311.91;5021571;28;20025;-58
2022/04/03 00:19:07;;;;;;;8.43;4.00;;;;;;;-0.45;64.36;102308.59;5021616;28;20105;-57
2022/04/03 00:21:35;;;;;;;8.97;4.27;;;;;;;-0.49;64.62;102317.47;5023781;28;20026;-56
2022/04/03 00:24:01;;;;;;;12.00;4.23;;;;;;;-0.54;64.76;102316.81;5019494;28;20457;-58
2022/04/03 00:26:26;;;;;;;6.97;4.10;;;;;;;-0.61;64.81;102320.56;5023444;28;20145;-58
2022/04/03 00:28:51;;;;;;;6.97;4.37;;;;;;;-0.71;64.92;102319.25;5016240;28;20026;-56
2022/04/03 00:31:17;;;;;;;12.10;6.10;;;;;;;-0.78;65.07;102321.25;5023130;28;20033;-58
2022/04/03 00:33:43;;;;;;;14.63;6.00;;;;;;;-0.85;65.39;102326.78;5018037;28;20400;-57
2022/04/03 00:36:09;;;;;;;11.93;5.40;;;;;;;-0.94;65.43;102322.75;5013383;28;20026;-57
2022/04/03 00:38:35;;;;;;;7.60;5.40;;;;;;;-1.03;65.76;102323.13;5024480;28;20429;-57
2022/04/03 00:41:02;;;;;;;9.03;4.57;;;;;;;-1.08;66.28;102314.63;5016594;28;20057;-57
2022/04/03 00:43:27;;;;;;;10.67;4.67;;;;;;;-1.13;66.63;102316.56;5021385;28;20113;-57
2022/04/03 00:45:53;;;;;;;7.27;4.90;;;;;;;-1.17;66.90;102328.00;5023976;28;20148;-57
2022/04/03 00:48:18;;;;;;;8.77;5.20;;;;;;;-1.20;67.14;102321.16;5017653;28;20112;-58
2022/04/03 00:50:44;;;;;;;8.83;4.70;;;;;;;-1.27;67.36;102310.13;5023084;28;20243;-57
2022/04/03 00:53:10;;;;;;;8.83;4.93;;;;;;;-1.28;67.68;102321.44;5023098;28;20040;-56
2022/04/03 00:55:35;;;;;;;7.70;4.80;;;;;;;-1.32;67.97;102321.63;5019610;28;20029;-57
2022/04/03 00:58:01;;;;;;;8.17;5.03;;;;;;;-1.37;68.06;102315.75;5014873;28;20459;-55
2022/04/03 01:00:27;;;;;;;10.57;5.90;;;;;;;-1.38;68.16;102317.50;5020971;28;20092;-54
2022/04/03 01:02:52;;;;;;;10.73;5.70;;;;;;;-1.40;68.38;102318.47;5019025;28;20113;-57
2022/04/03 01:05:21;;;;;;;10.67;5.70;;;;;;;-1.40;68.65;102313.25;5021073;28;20116;-57
2022/04/03 01:07:46;;;;;;;11.70;6.40;;;;;;;-1.44;68.81;102311.69;5012919;28;20034;-56
2022/04/03 01:10:11;;;;;;;9.07;6.20;;;;;;;-1.45;69.04;102315.16;5020629;28;20459;-56
2022/04/03 01:12:46;;;;;;;9.23;5.63;;;;;;;-1.48;69.00;102315.28;5011350;28;20057;-57
2022/04/03 01:15:15;;;;;;;9.13;5.40;;;;;;;-1.47;69.15;102311.78;5021019;28;20033;-55
2022/04/03 01:17:41;;;;;;;9.82;5.10;;;;;;;-1.52;69.41;102308.50;5021121;28;20036;-58
2022/04/03 01:20:07;;;;;;;9.43;5.40;;;;;;;-1.59;69.64;102311.31;5016902;28;20037;-57
2022/04/03 01:22:33;;;;;;;10.60;5.87;;;;;;;-1.61;69.60;102313.13;5018939;28;20022;-57
2022/04/03 01:24:59;;;;;;;12.13;6.27;;;;;;;-1.65;69.79;102313.31;5012177;28;20394;-56
2022/04/03 01:27:24;;;;;;;9.77;6.33;;;;;;;-1.69;70.05;102306.53;5019076;28;20144;-56
2022/04/03 01:29:52;;;;;;;23.97;9.03;;;;;;;-1.70;70.14;102312.63;5022057;28;20029;-58
2022/04/03 01:32:17;;;;;;;18.93;9.37;;;;;;;-1.73;70.34;102313.59;5025105;28;20051;-56
2022/04/03 01:34:43;;;;;;;18.87;10.20;;;;;;;-1.73;70.42;102315.34;5019104;28;20405;-55
2022/04/03 01:37:08;;;;;;;22.57;10.03;;;;;;;-1.73;70.79;102300.59;5019426;28;20018;-57
2022/04/03 01:39:33;;;;;;;31.40;12.53;;;;;;;-1.68;70.93;102306.47;5015579;28;20050;-56
2022/04/03 01:41:59;;;;;;;17.87;9.23;;;;;;;-1.68;71.10;102297.81;5022368;28;20112;-57
2022/04/03 01:44:24;;;;;;;20.87;10.37;;;;;;;-1.64;71.38;102302.00;5024241;28;20046;-57
2022/04/03 01:46:50;;;;;;;20.63;10.50;;;;;;;-1.63;71.42;102304.53;5022282;28;20053;-58
2022/04/03 01:49:15;;;;;;;16.63;8.80;;;;;;;-1.60;71.60;102299.22;5025430;28;20112;-57
2022/04/03 01:51:41;;;;;;;10.00;6.67;;;;;;;-1.64;71.56;102302.84;5024577;28;20025;-57
2022/04/03 01:54:06;;;;;;;11.07;6.50;;;;;;;-1.64;71.68;102295.03;5026274;28;20033;-57
2022/04/03 01:56:34;;;;;;;10.20;6.20;;;;;;;-1.66;71.87;102296.00;5023821;28;20090;-57
2022/04/03 01:59:00;;;;;;;10.30;5.90;;;;;;;-1.68;72.09;102288.22;5020935;28;20511;-58
2022/04/03 02:01:25;;;;;;;9.63;5.90;;;;;;;-1.69;72.04;102289.16;5020870;28;20029;-57
2022/04/03 02:03:51;;;;;;;8.17;5.87;;;;;;;-1.73;72.10;102291.91;5017708;28;20029;-56
2022/04/03 02:06:16;;;;;;;11.33;5.50;;;;;;;-1.76;72.21;102295.47;5027607;28;20029;-56
2022/04/03 02:08:42;;;;;;;8.83;5.70;;;;;;;-1.81;72.36;102292.19;5018666;28;20058;-57
2022/04/03 02:11:07;;;;;;;10.17;6.27;;;;;;;-1.84;72.33;102292.28;5015975;28;20113;-56
2022/04/03 02:13:32;;;;;;;7.73;5.57;;;;;;;-1.92;72.46;102296.94;5028669;28;20033;-57
2022/04/03 02:15:58;;;;;;;9.83;5.20;;;;;;;-1.97;72.39;102301.47;5023253;28;20329;-56
2022/04/03 02:18:24;;;;;;;9.27;6.00;;;;;;;-2.03;72.45;102291.22;5025805;28;20032;-56
2022/04/03 02:20:49;;;;;;;10.63;5.93;;;;;;;-2.05;72.88;102298.25;5024486;28;20025;-55
2022/04/03 02:23:14;;;;;;;10.23;6.40;;;;;;;-2.04;73.38;102289.53;5017102;28;21744;-57
2022/04/03 02:25:40;;;;;;;12.23;6.63;;;;;;;-2.00;73.52;102289.41;5022736;28;20033;-55
2022/04/03 02:28:06;;;;;;;10.57;6.17;;;;;;;-2.00;73.58;102286.81;5019926;28;20107;-56
2022/04/03 02:30:31;;;;;;;11.33;6.37;;;;;;;-1.99;73.56;102295.47;5024858;28;20049;-56
2022/04/03 02:32:56;;;;;;;11.70;6.60;;;;;;;-1.99;73.63;102287.66;5022525;28;20037;-57
2022/04/03 02:35:22;;;;;;;10.00;5.93;;;;;;;-2.01;73.65;102286.84;5024655;28;20100;-57
2022/04/03 02:37:48;;;;;;;9.30;5.73;;;;;;;-2.07;73.58;102284.44;5023866;28;20029;-57
2022/04/03 02:40:16;;;;;;;11.47;6.20;;;;;;;-2.09;73.65;102292.31;5016368;28;20111;-56
2022/04/03 02:42:42;;;;;;;11.33;6.27;;;;;;;-2.14;73.82;102289.03;5025104;28;20021;-57
2022/04/03 02:45:10;;;;;;;10.30;5.90;;;;;;;-2.16;73.88;102289.97;5026181;28;20044;-56
2022/04/03 02:47:36;;;;;;;10.73;6.20;;;;;;;-2.21;74.08;102283.19;5021707;28;20029;-58
2022/04/03 02:50:02;;;;;;;12.20;6.57;;;;;;;-2.15;74.23;102291.69;5026151;28;20061;-57
2022/04/03 02:52:27;;;;;;;9.60;6.40;;;;;;;-2.15;74.27;102291.69;5018663;28;20079;-56
2022/04/03 02:54:52;;;;;;;9.10;6.17;;;;;;;-2.15;74.59;102294.28;5016811;28;20034;-55
2022/04/03 02:57:18;;;;;;;9.07;6.50;;;;;;;-2.13;74.33;102292.47;5017387;28;20026;-56
2022/04/03 02:59:44;;;;;;;13.33;7.00;;;;;;;-2.13;74.54;102301.13;5021957;28;20065;-55
2022/04/03 03:02:10;;;;;;;12.20;7.10;;;;;;;-2.18;74.54;102287.44;5020545;28;20095;-56
2022/04/03 03:04:35;;;;;;;16.90;7.20;;;;;;;-2.19;74.50;102291.78;5025865;28;20506;-56
2022/04/03 03:07:05;;;;;;;11.30;6.83;;;;;;;-2.15;74.77;102302.09;5019853;28;20037;-56
2022/04/03 03:09:31;;;;;;;13.93;7.73;;;;;;;-2.15;74.66;102302.09;5014440;28;20030;-56
2022/04/03 03:11:56;;;;;;;14.03;7.23;;;;;;;-2.14;74.69;102304.63;5020667;28;20091;-57
2022/04/03 03:14:22;;;;;;;14.23;6.87;;;;;;;-2.13;74.81;102306.34;5023263;28;20056;-57
2022/04/03 03:16:48;;;;;;;11.90;7.60;;;;;;;-2.10;74.86;102294.97;5019966;28;20029;-57
2022/04/03 03:19:13;;;;;;;11.60;6.97;;;;;;;-2.09;75.04;102294.06;5021223;28;20473;-58
2022/04/03 03:21:39;;;;;;;14.03;7.20;;;;;;;-2.08;75.06;102296.59;5023891;28;20067;-56
2022/04/03 03:24:04;;;;;;;12.37;6.87;;;;;;;-2.06;75.16;102296.56;5021152;28;20481;-56
2022/04/03 03:26:30;;;;;;;11.47;6.80;;;;;;;-2.08;75.36;102298.38;5021571;28;20036;-58
2022/04/03 03:28:55;;;;;;;14.37;7.30;;;;;;;-2.05;75.33;102296.50;5018552;28;20033;-56
2022/04/03 03:31:20;;;;;;;15.17;7.33;;;;;;;-2.05;75.79;102299.09;5026060;28;20026;-57
2022/04/03 03:33:47;;;;;;;10.73;6.63;;;;;;;-2.04;75.69;102305.16;5021449;28;20497;-56
2022/04/03 03:36:13;;;;;;;12.47;6.53;;;;;;;-2.07;75.58;102300.06;5023778;28;20056;-56
2022/04/03 03:38:38;;;;;;;11.70;6.73;;;;;;;-2.07;75.67;102307.88;5022647;28;20473;-56
2022/04/03 03:41:03;;;;;;;10.00;6.60;;;;;;;-2.08;75.56;102300.97;5015575;28;20536;-54
2022/04/03 03:43:29;;;;;;;12.37;6.70;;;;;;;-2.11;75.78;102299.31;5016251;28;20021;-56
2022/04/03 03:45:54;;;;;;;11.87;6.70;;;;;;;-2.11;75.65;102304.53;5028574;28;20071;-57
2022/04/03 03:48:20;;;;;;;11.67;6.40;;;;;;;-2.15;75.73;102304.69;5016610;28;20087;-56
2022/04/03 03:50:45;;;;;;;9.83;6.50;;;;;;;-2.14;76.08;102307.25;5024995;28;20335;-56
2022/04/03 03:53:11;;;;;;;12.80;6.37;;;;;;;-2.15;76.06;102307.28;5024179;28;20099;-56
2022/04/03 03:55:36;;;;;;;11.60;7.00;;;;;;;-2.23;76.26;102300.59;5023726;28;20040;-56
2022/04/03 03:58:02;;;;;;;14.30;6.50;;;;;;;-2.26;76.03;102303.31;5014003;28;20053;-56
2022/04/03 04:00:27;;;;;;;11.53;6.50;;;;;;;-2.24;76.01;102301.50;5027236;28;20032;-56
2022/04/03 04:02:52;;;;;;;9.47;6.33;;;;;;;-2.26;76.14;102300.72;5027345;28;20106;-56
2022/04/03 04:05:18;;;;;;;8.90;5.90;;;;;;;-2.25;76.40;102307.63;5035611;28;20028;-55
2022/04/03 04:07:45;;;;;;;9.57;6.03;;;;;;;-2.25;76.46;102301.56;5027617;28;20033;-56
2022/04/03 04:10:12;;;;;;;9.67;5.90;;;;;;;-2.26;76.67;102303.31;5018145;28;20037;-56
2022/04/03 04:12:41;;;;;;;9.63;6.17;;;;;;;-2.27;76.85;102309.44;5023924;28;20028;-55
2022/04/03 04:15:08;;;;;;;10.52;6.35;;;;;;;-2.29;76.65;102303.44;5019804;28;20025;-55
2022/04/03 04:17:38;;;;;;;12.47;6.60;;;;;;;-2.31;76.88;102312.19;5015186;28;20049;-57
2022/04/03 04:20:12;;;;;;;10.50;5.93;;;;;;;-2.37;76.80;102313.22;5027083;28;20393;-56
2022/04/03 04:22:39;;;;;;;9.93;5.80;;;;;;;-2.47;76.68;102309.22;5028511;28;20037;-55
2022/04/03 04:25:05;;;;;;;11.63;5.80;;;;;;;-2.53;76.53;102312.91;5027697;28;20072;-56
2022/04/03 04:27:31;;;;;;;11.67;6.10;;;;;;;-2.61;76.78;102314.03;5025644;28;20033;-55
2022/04/03 04:29:56;;;;;;;11.90;6.03;;;;;;;-2.61;76.69;102316.63;5015748;28;20088;-57
2022/04/03 04:32:21;;;;;;;9.77;5.57;;;;;;;-2.68;76.52;102307.31;5023049;28;20026;-53
2022/04/03 04:34:50;;;;;;;8.83;5.73;;;;;;;-2.75;77.21;102305.84;5018922;28;20037;-54
2022/04/03 04:37:17;;;;;;;9.23;6.05;;;;;;;-2.84;77.38;102305.25;5018358;28;20033;-55
2022/04/03 04:39:43;;;;;;;10.53;5.40;;;;;;;-2.90;77.33;102307.16;5023838;28;20501;-55
2022/04/03 04:42:08;;;;;;;11.07;6.13;;;;;;;-2.91;77.54;102316.69;5017551;28;20042;-55
2022/04/03 04:44:33;;;;;;;10.07;5.83;;;;;;;-2.90;77.78;102325.34;5018945;28;20037;-55
2022/04/03 04:46:59;;;;;;;9.37;5.63;;;;;;;-2.92;77.82;102319.34;5016582;28;20268;-53
2022/04/03 04:49:24;;;;;;;9.43;6.00;;;;;;;-2.93;77.79;102328.03;5013540;28;20029;-55
2022/04/03 04:51:49;;;;;;;10.10;5.83;;;;;;;-2.94;77.78;102321.16;5020750;28;20443;-56
2022/04/03 04:54:14;;;;;;;12.47;6.07;;;;;;;-2.90;78.16;102325.34;5027401;28;20476;-57
2022/04/03 04:56:40;;;;;;;9.77;5.20;;;;;;;-2.92;77.92;102330.59;5026057;28;20040;-55
2022/04/03 04:59:06;;;;;;;10.03;5.57;;;;;;;-2.98;77.94;102340.34;5021337;28;20021;-56
2022/04/03 05:01:31;;;;;;;10.63;5.80;;;;;;;-3.02;77.60;102338.72;5026502;28;20076;-55
2022/04/03 05:03:57;;;;;;;10.53;6.30;;;;;;;-3.02;77.56;102343.94;5027658;28;20397;-56
2022/04/03 05:06:26;;;;;;;10.00;5.97;;;;;;;-3.02;77.72;102344.78;5026759;28;20029;-56
2022/04/03 05:08:52;;;;;;;9.70;5.28;;;;;;;-3.03;77.82;102332.69;5026792;28;20113;-56
2022/04/03 05:11:18;;;;;;;9.97;6.00;;;;;;;-3.00;77.98;102344.72;5027297;28;20342;-56
2022/04/03 05:13:43;;;;;;;11.73;6.43;;;;;;;-2.95;78.34;102341.09;5027117;28;20041;-55
2022/04/03 05:16:08;;;;;;;11.37;6.63;;;;;;;-2.91;78.35;102344.44;5025148;28;20036;-54
2022/04/03 05:18:35;;;;;;;11.17;6.47;;;;;;;-2.85;78.73;102352.94;5020154;28;20021;-56
2022/04/03 05:21:01;;;;;;;10.47;7.27;;;;;;;-2.83;78.84;102351.13;5025822;28;20038;-55
2022/04/03 05:23:27;;;;;;;9.60;6.17;;;;;;;-2.78;78.85;102342.34;5011562;28;20032;-57
2022/04/03 05:25:52;;;;;;;12.33;6.50;;;;;;;-2.70;78.85;102342.94;5013309;28;20030;-57
2022/04/03 05:28:17;;;;;;;14.50;6.77;;;;;;;-2.62;78.95;102344.38;5019579;28;20174;-56
2022/04/03 05:30:43;;;;;;;26.33;7.13;;;;;;;-2.56;79.18;102351.16;5023858;28;20384;-55
2022/04/03 05:33:08;;;;;;;13.00;6.93;;;;;;;-2.50;79.24;102346.59;5025707;28;20049;-55
2022/04/03 05:35:33;;;;;;;11.97;6.67;;;;;;;-2.43;79.32;102338.59;5024432;28;20358;-54
2022/04/03 05:37:59;;;;;;;9.00;6.30;;;;;;;-2.38;79.13;102347.09;5025883;28;20021;-54
2022/04/03 05:40:24;;;;;;;9.80;5.87;;;;;;;-2.36;79.28;102345.28;5026192;28;20030;-55
2022/04/03 05:42:49;;;;;;;9.73;6.20;;;;;;;-2.33;79.27;102345.19;5022781;28;20048;-55
2022/04/03 05:45:15;;;;;;;11.63;7.00;;;;;;;-2.29;79.27;102346.81;5026129;28;20084;-55
2022/04/03 05:47:41;;;;;;;11.07;7.10;;;;;;;-2.26;79.26;102355.34;5015965;28;20033;-56
2022/04/03 05:50:06;;;;;;;11.37;6.57;;;;;;;-2.24;79.14;102348.34;5023965;28;20072;-53
2022/04/03 05:52:43;;;;;;;11.40;6.17;;;;;;;-2.20;79.22;102352.53;5012071;28;20436;-55
2022/04/03 05:55:09;;;;;;;11.27;7.13;;;;;;;-2.19;79.27;102359.44;5017684;28;20025;-54
2022/04/03 05:57:35;;;;;;;11.93;7.30;;;;;;;-2.12;79.17;102354.03;5014323;28;20095;-55
2022/04/03 06:00:01;;;;;;;11.03;6.90;;;;;;;-2.07;79.29;102363.38;5016800;28;20076;-55
2022/04/03 06:02:26;;;;;;;12.43;7.37;;;;;;;-2.00;79.25;102356.22;5018295;28;20017;-54
2022/04/03 06:04:52;;;;;;;12.63;7.60;;;;;;;-1.96;79.20;102363.03;5015022;28;20398;-53
2022/04/03 06:07:17;;;;;;;15.53;7.50;;;;;;;-1.90;79.30;102368.00;5022940;28;20129;-55
2022/04/03 06:09:42;;;;;;;11.33;7.53;;;;;;;-1.83;79.55;102366.03;5025136;28;20380;-55
2022/04/03 06:12:08;;;;;;;11.67;7.30;;;;;;;-1.80;79.63;102364.19;5022121;28;20030;-54
2022/04/03 06:14:33;;;;;;;16.97;8.00;;;;;;;-1.78;79.45;102367.56;5025640;28;20037;-54
2022/04/03 06:16:59;;;;;;;17.23;9.40;;;;;;;-1.78;79.44;102353.69;5014730;28;20109;-54
2022/04/03 06:19:24;;;;;;;18.97;10.53;;;;;;;-1.78;79.80;102359.75;5025563;28;20485;-54
2022/04/03 06:21:49;;;;;;;18.90;10.67;;;;;;;-1.80;79.88;102369.38;5013793;28;20030;-55
2022/04/03 06:24:14;;;;;;;22.03;11.00;;;;;;;-1.81;79.94;102365.06;5024310;28;20109;-53
2022/04/03 06:26:40;;;;;;;24.37;11.83;;;;;;;-1.75;79.90;102366.63;5013726;28;20037;-53
2022/04/03 06:29:05;;;;;;;23.73;12.03;;;;;;;-1.67;80.13;102364.63;5006623;28;20092;-54
2022/04/03 06:31:30;;;;;;;19.13;11.73;;;;;;;-1.60;80.21;102364.31;5021156;28;20025;-54
2022/04/03 06:33:55;;;;;;;19.87;12.10;;;;;;;-1.52;80.10;102365.81;5022176;28;20035;-54
2022/04/03 06:36:21;;;;;;;29.53;12.40;;;;;;;-1.50;80.07;102361.38;5027693;28;20488;-54
2022/04/03 06:38:46;;;;;;;22.83;12.50;;;;;;;-1.48;80.06;102370.00;5027362;28;20033;-55
2022/04/03 06:41:11;;;;;;;20.17;12.50;;;;;;;-1.43;80.17;102366.34;5022459;28;20080;-54
2022/04/03 06:43:37;;;;;;;19.17;11.90;;;;;;;-1.33;80.24;102372.06;5021743;28;20065;-53
2022/04/03 06:46:03;;;;;;;22.37;12.37;;;;;;;-1.24;80.39;102371.69;5024939;28;20025;-56
2022/04/03 06:48:29;;;;;;;20.17;11.60;;;;;;;-1.15;80.44;102376.59;5013830;28;20036;-55
2022/04/03 06:50:54;;;;;;;23.13;11.27;;;;;;;-1.05;80.56;102377.09;5030459;28;20045;-52
2022/04/03 06:53:19;;;;;;;18.43;10.90;;;;;;;-0.95;80.39;102373.19;5028706;28;20025;-54
2022/04/03 06:55:44;;;;;;;17.33;11.10;;;;;;;-0.87;80.41;102373.75;5023592;28;20503;-54
2022/04/03 06:58:10;;;;;;;17.53;10.67;;;;;;;-0.79;80.65;102376.09;5027681;28;20017;-54
2022/04/03 07:00:37;;;;;;;17.37;10.40;;;;;;;-0.70;80.47;102367.88;5024792;28;20068;-54
2022/04/03 07:03:03;;;;;;;16.47;9.93;;;;;;;-0.60;80.75;102371.81;5029098;28;20089;-52
2022/04/03 07:05:28;;;;;;;12.90;10.07;;;;;;;-0.56;80.70;102362.13;5028730;28;20180;-52
2022/04/03 07:07:54;;;;;;;17.23;10.47;;;;;;;-0.39;80.73;102377.94;5029346;28;20104;-53
2022/04/03 07:10:20;;;;;;;18.03;10.80;;;;;;;-0.31;80.86;102360.19;5026914;28;20036;-56
2022/04/03 07:12:45;;;;;;;17.20;11.27;;;;;;;-0.16;80.81;102371.78;5032732;28;20044;-54
2022/04/03 07:15:13;;;;;;;15.53;11.20;;;;;;;-0.08;80.78;102373.16;5028384;28;20390;-56
2022/04/03 07:17:40;;;;;;;17.33;10.83;;;;;;;0.07;80.97;102366.44;5025037;28;20467;-55
2022/04/03 07:20:06;;;;;;;15.63;11.30;;;;;;;0.19;81.25;102372.91;5018963;28;20056;-55
2022/04/03 07:22:32;;;;;;;20.53;11.80;;;;;;;0.34;81.65;102374.00;5024355;28;20571;-55
2022/04/03 07:24:57;;;;;;;13.40;10.77;;;;;;;0.47;81.44;102377.75;5021016;28;20113;-55
2022/04/03 07:27:23;;;;;;;16.87;11.50;;;;;;;0.59;81.65;102375.47;5018135;28;20084;-55
2022/04/03 07:29:48;;;;;;;19.13;11.50;;;;;;;0.77;81.83;102379.00;5017542;28;20030;-55
2022/04/03 07:32:14;;;;;;;15.83;11.50;;;;;;;0.93;81.79;102381.78;5020031;28;20477;-55
2022/04/03 07:34:39;;;;;;;16.80;11.07;;;;;;;1.09;81.78;102380.13;5019867;28;20030;-55
2022/04/03 07:37:04;;;;;;;16.80;10.23;;;;;;;1.29;81.48;102384.44;5018021;28;20025;-55
2022/04/03 07:39:30;;;;;;;14.23;8.97;;;;;;;1.45;81.28;102388.03;5020371;28;20053;-53
2022/04/03 07:41:56;;;;;;;12.00;8.80;;;;;;;1.63;80.92;102386.28;5022707;28;20029;-56
2022/04/03 07:44:21;;;;;;;14.03;8.30;;;;;;;1.82;80.78;102381.00;5024587;28;20106;-51
2022/04/03 07:46:46;;;;;;;12.33;7.57;;;;;;;1.98;80.32;102383.69;5014727;28;20406;-52
2022/04/03 07:49:12;;;;;;;8.83;6.90;;;;;;;2.13;79.74;102380.28;5018174;28;20104;-53
2022/04/03 07:51:37;;;;;;;9.07;5.60;;;;;;;2.26;79.04;102383.97;5018978;28;20037;-54
2022/04/03 07:54:03;;;;;;;9.47;6.37;;;;;;;2.39;78.69;102378.97;5021618;28;20029;-53
2022/04/03 07:56:29;;;;;;;8.13;5.93;;;;;;;2.53;77.95;102380.84;5023970;28;20060;-55
2022/04/03 07:58:55;;;;;;;8.50;5.80;;;;;;;2.64;77.62;102387.22;5027104;28;20038;-54
2022/04/03 08:01:20;;;;;;;10.23;5.73;;;;;;;2.79;77.07;102382.94;5021592;28;20143;-54
2022/04/03 08:03:45;;;;;;;9.40;5.07;;;;;;;2.92;76.57;102381.34;5022752;28;20033;-55
2022/04/03 08:06:10;;;;;;;7.60;4.87;;;;;;;3.05;76.24;102377.13;5028788;28;20029;-55
2022/04/03 08:08:36;;;;;;;10.07;4.80;;;;;;;3.17;75.42;102385.22;5025974;28;20432;-54
2022/04/03 08:11:01;;;;;;;5.40;4.53;;;;;;;3.24;74.07;102381.34;5028851;28;20120;-55
2022/04/03 08:13:27;;;;;;;7.47;4.57;;;;;;;3.35;73.44;102389.47;5026939;28;20519;-55
2022/04/03 08:15:53;;;;;;;8.03;4.30;;;;;;;3.42;73.13;102389.03;5028630;28;20025;-55
2022/04/03 08:18:19;;;;;;;6.30;4.00;;;;;;;3.48;72.80;102377.34;5027016;28;20021;-55
2022/04/03 08:20:44;;;;;;;5.77;4.10;;;;;;;3.57;72.04;102383.88;5028663;28;20029;-56
2022/04/03 08:23:10;;;;;;;6.60;3.83;;;;;;;3.64;71.04;102385.19;5028301;28;20031;-54
2022/04/03 08:25:36;;;;;;;7.60;4.07;;;;;;;3.73;70.70;102390.75;5029051;28;20034;-54
2022/04/03 08:28:02;;;;;;;5.23;3.73;;;;;;;3.81;69.91;102387.72;5026951;28;20444;-55
2022/04/03 08:30:33;;;;;;;6.33;3.20;;;;;;;3.91;69.69;102393.28;5028275;28;20087;-54
2022/04/03 08:32:59;;;;;;;7.10;3.90;;;;;;;4.03;69.49;102392.53;5022130;28;20037;-56
2022/04/03 08:35:26;;;;;;;5.83;3.00;;;;;;;4.21;69.70;102390.63;5020281;28;20040;-55
2022/04/03 08:37:53;;;;;;;4.73;2.80;;;;;;;4.33;68.92;102395.13;5028616;28;20094;-54
2022/04/03 08:40:21;;;;;;;6.50;2.90;;;;;;;4.43;68.46;102395.44;5027159;28;20031;-55
2022/04/03 08:42:47;;;;;;;3.53;2.40;;;;;;;4.45;68.38;102383.88;5026087;28;20492;-54
2022/04/03 08:45:13;;;;;;;4.57;2.30;;;;;;;4.45;67.02;102397.03;5027617;28;20031;-55
2022/04/03 08:47:54;;;;;;;7.20;3.40;;;;;;;4.52;66.36;102397.50;5023416;28;20041;-55
2022/04/03 08:50:23;;;;;;;7.23;3.10;;;;;;;4.66;66.65;102393.13;5024856;28;20025;-55
2022/04/03 08:52:51;;;;;;;6.47;2.60;;;;;;;4.72;65.81;102401.56;5028278;28;20029;-55
2022/04/03 08:55:17;;;;;;;4.40;2.40;;;;;;;4.72;65.65;102397.16;5027426;28;20044;-56
2022/04/03 08:57:43;;;;;;;6.10;2.57;;;;;;;4.74;65.89;102395.25;5027357;28;20120;-55
2022/04/03 09:00:09;;;;;;;4.93;2.30;;;;;;;4.77;65.27;102399.50;5019058;28;20097;-54
2022/04/03 09:02:35;;;;;;;5.73;2.30;;;;;;;4.82;65.21;102394.78;5018042;28;20029;-54
2022/04/03 09:05:00;;;;;;;5.93;2.80;;;;;;;4.87;64.69;102396.19;5017702;28;20087;-54
2022/04/03 09:07:26;;;;;;;4.40;2.23;;;;;;;4.91;64.27;102399.47;5019448;28;20631;-55
2022/04/03 09:09:59;;;;;;;3.13;2.00;;;;;;;4.94;63.89;102392.25;5021607;28;20026;-54
2022/04/03 09:12:24;;;;;;;3.97;1.90;;;;;;;4.85;63.18;102390.16;5012718;28;20043;-53
2022/04/03 09:14:52;;;;;;;4.30;2.47;;;;;;;4.87;63.13;102393.56;5015621;28;20022;-53
2022/04/03 09:17:37;;;;;;;3.80;2.30;;;;;;;5.05;62.84;102386.31;5013204;28;20549;-54
2022/04/03 09:20:08;;;;;;;4.33;2.10;;;;;;;5.20;63.00;102387.09;5017651;28;20385;-53
2022/04/03 09:22:36;;;;;;;2.70;2.00;;;;;;;5.41;62.85;102387.53;5016647;28;20025;-52
2022/04/03 09:25:07;;;;;;;4.23;2.10;;;;;;;5.60;62.26;102385.41;5015135;28;20579;-56
2022/04/03 09:27:59;;;;;;;3.80;2.47;;;;;;;5.82;61.73;102382.19;5015381;28;20037;-55
2022/04/03 09:30:47;;;;;;;3.90;1.77;;;;;;;5.94;60.96;102376.13;5010376;28;20068;-51
2022/04/03 09:33:20;;;;;;;2.57;1.70;;;;;;;6.04;59.94;102373.69;5014167;28;20104;-55
2022/04/03 09:35:57;;;;;;;6.23;1.60;;;;;;;6.10;59.96;102379.44;5020431;28;20113;-54
2022/04/03 09:38:24;;;;;;;3.33;1.90;;;;;;;6.35;59.79;102375.94;5020524;28;20025;-54
2022/04/03 09:40:51;;;;;;;2.47;1.80;;;;;;;6.72;60.15;102365.50;5010867;28;20051;-54
2022/04/03 09:43:21;;;;;;;4.13;1.93;;;;;;;7.14;59.40;102372.97;5018020;28;20029;-53
2022/04/03 09:46:01;;;;;;;4.17;1.80;;;;;;;7.37;58.60;102357.25;5012373;28;20061;-55
2022/04/03 09:48:40;;;;;;;2.80;1.57;;;;;;;7.59;57.90;102369.75;5010213;28;20079;-55
2022/04/03 09:51:19;;;;;;;3.38;1.70;;;;;;;7.82;57.43;102360.09;5021208;28;20029;-56
2022/04/03 09:53:50;;;;;;;2.35;1.52;;;;;;;7.74;56.24;102361.50;5015695;28;20036;-56
2022/04/03 09:56:24;;;;;;;2.63;1.23;;;;;;;7.93;55.55;102358.31;5025106;28;20053;-54
2022/04/03 09:58:50;;;;;;;5.88;1.80;;;;;;;7.96;54.98;102351.94;5018935;28;20095;-56
2022/04/03 10:01:23;;;;;;;2.33;1.50;;;;;;;7.95;54.80;102355.56;5025651;28;20025;-52
2022/04/03 10:03:49;;;;;;;5.80;1.80;;;;;;;7.96;54.64;102349.31;5023950;28;20032;-55
2022/04/03 10:06:16;;;;;;;4.10;1.60;;;;;;;8.27;54.91;102355.75;5024113;28;20079;-56
2022/04/03 10:08:42;;;;;;;3.85;1.50;;;;;;;8.33;54.25;102353.47;5023564;28;20083;-54
2022/04/03 10:11:08;;;;;;;4.63;1.67;;;;;;;8.24;53.83;102343.59;5014753;28;20045;-54
2022/04/03 10:13:35;;;;;;;5.68;1.67;;;;;;;8.21;53.66;102350.94;5027161;28;20025;-56
2022/04/03 10:16:00;;;;;;;3.40;1.60;;;;;;;8.14;53.10;102341.78;5019866;28;20382;-56
2022/04/03 10:18:25;;;;;;;4.53;1.75;;;;;;;8.11;52.79;102339.38;5017044;28;20040;-55
2022/04/03 10:20:51;;;;;;;4.13;1.70;;;;;;;8.18;52.35;102330.00;5019745;28;20099;-54
2022/04/03 10:23:17;;;;;;;2.50;1.80;;;;;;;8.07;52.01;102330.81;5023892;28;20520;-55
2022/04/03 10:25:46;;;;;;;4.38;1.85;;;;;;;7.81;51.69;102334.63;5019399;28;20080;-55
2022/04/03 10:28:16;;;;;;;4.55;2.03;;;;;;;7.66;52.40;102332.16;5028751;28;20026;-54
2022/04/03 10:30:45;;;;;;;2.47;1.88;;;;;;;7.45;52.49;102328.44;5015422;28;20569;-52
2022/04/03 10:33:21;;;;;;;6.07;1.70;;;;;;;7.37;52.65;102330.81;5021392;28;20037;-57
2022/04/03 10:35:48;;;;;;;8.15;1.98;;;;;;;7.31;52.92;102331.28;5024445;28;20060;-54
2022/04/03 10:38:13;;;;;;;1.88;1.63;;;;;;;7.27;53.12;102330.66;5020523;28;20032;-54
2022/04/03 10:40:39;;;;;;;3.58;1.80;;;;;;;7.30;53.32;102319.03;5022319;28;20033;-55
2022/04/03 10:43:06;;;;;;;2.65;1.88;;;;;;;7.39;53.05;102319.19;5028529;28;20040;-54
2022/04/03 10:45:46;;;;;;;2.78;1.50;;;;;;;7.60;53.29;102323.84;5024281;28;20071;-54
2022/04/03 10:48:21;;;;;;;2.45;1.50;;;;;;;7.59;52.62;102319.50;5021623;28;20065;-56
2022/04/03 10:51:09;;;;;;;2.50;1.38;;;;;;;7.56;52.25;102317.94;5027404;28;20195;-54
2022/04/03 10:53:36;;;;;;;3.72;1.70;;;;;;;7.66;52.14;102315.44;5019247;28;20087;-55
2022/04/03 10:56:08;;;;;;;2.33;1.48;;;;;;;7.76;52.21;102317.25;5030132;28;20108;-55
2022/04/03 10:58:48;;;;;;;3.38;1.40;;;;;;;7.89;51.91;102313.72;5027551;28;20614;-56
2022/04/03 11:01:25;;;;;;;1.77;1.30;;;;;;;7.83;51.53;102317.66;5023187;28;20091;-55
2022/04/03 11:04:01;;;;;;;4.93;1.40;;;;;;;7.81;51.28;102310.81;5030167;28;20033;-54
2022/04/03 11:06:31;;;;;;;3.95;1.27;;;;;;;7.79;51.12;102310.91;5029642;28;20361;-53
2022/04/03 11:08:59;;;;;;;1.98;1.40;;;;;;;7.76;50.99;102316.44;5029029;28;20029;-55
2022/04/03 11:11:34;;;;;;;3.30;1.40;;;;;;;7.73;50.54;102306.09;5023182;28;20069;-55
2022/04/03 11:13:59;;;;;;;2.85;1.15;;;;;;;7.71;50.74;102298.25;5020393;28;20022;-56
2022/04/03 11:16:26;;;;;;;5.07;1.98;;;;;;;7.75;50.23;102298.88;5029527;28;20159;-55
2022/04/03 11:18:51;;;;;;;8.50;3.95;;;;;;;7.82;50.55;102304.56;5026915;28;20053;-55
2022/04/03 11:21:22;;;;;;;3.88;2.55;;;;;;;7.94;50.25;102308.91;5029000;28;20049;-54